createdAt,value
2023-05-14T00:00:59.173Z,7.50
2023-05-14T00:03:30.025Z,7.50
2023-05-14T00:05:58.675Z,6.70
2023-05-14T00:08:26.672Z,6.90
2023-05-14T00:10:54.820Z,7.30
2023-05-14T00:13:23.035Z,8.50
2023-05-14T00:15:51.112Z,6.90
2023-05-14T00:18:19.213Z,7.60
2023-05-14T00:20:47.217Z,9.50
2023-05-14T00:23:15.106Z,7.90
2023-05-14T00:25:43.240Z,10.30
2023-05-14T00:28:11.236Z,7.90
2023-05-14T00:30:40.119Z,9.00
2023-05-14T00:33:08.541Z,8.90
2023-05-14T00:35:36.781Z,8.80
2023-05-14T00:38:05.251Z,7.40
2023-05-14T00:40:33.217Z,7.10
2023-05-14T00:43:01.914Z,7.90
2023-05-14T00:45:29.892Z,7.00
2023-05-14T00:47:58.043Z,7.10
2023-05-14T00:50:26.542Z,7.00
2023-05-14T00:52:54.752Z,7.50
2023-05-14T00:55:23.008Z,7.40
2023-05-14T00:57:51.480Z,7.10
2023-05-14T01:00:19.828Z,7.50
2023-05-14T01:02:47.930Z,7.80
2023-05-14T01:05:16.303Z,7.90
2023-05-14T01:08:09.783Z,6.70
2023-05-14T01:10:56.753Z,7.30
2023-05-14T01:13:53.134Z,9.70
2023-05-14T01:16:27.012Z,7.70
2023-05-14T01:18:59.227Z,7.60
2023-05-14T01:21:43.661Z,6.70
2023-05-14T01:24:11.913Z,7.80
2023-05-14T01:26:39.889Z,7.60
2023-05-14T01:29:23.641Z,7.00
2023-05-14T01:31:54.904Z,5.80
2023-05-14T01:34:28.525Z,8.60
2023-05-14T01:36:58.282Z,7.30
2023-05-14T01:39:27.995Z,9.30
2023-05-14T01:41:56.785Z,6.40
2023-05-14T01:44:25.482Z,6.50
2023-05-14T01:46:53.542Z,7.20
2023-05-14T01:49:21.516Z,7.00
2023-05-14T01:51:49.894Z,7.40
2023-05-14T01:54:17.872Z,7.60
2023-05-14T01:56:46.652Z,7.10
2023-05-14T01:59:15.033Z,7.20
2023-05-14T02:01:42.931Z,8.60
2023-05-14T02:04:11.125Z,10.00
2023-05-14T02:06:42.973Z,7.60
2023-05-14T02:09:11.453Z,8.00
2023-05-14T02:11:40.107Z,8.80
2023-05-14T02:14:07.949Z,8.00
2023-05-14T02:16:36.041Z,7.40
2023-05-14T02:19:04.194Z,7.70
2023-05-14T02:21:32.800Z,7.80
2023-05-14T02:24:01.155Z,7.50
2023-05-14T02:26:29.189Z,9.30
2023-05-14T02:28:57.968Z,7.50
2023-05-14T02:31:26.661Z,7.60
2023-05-14T02:33:54.706Z,7.40
2023-05-14T02:36:22.772Z,6.00
2023-05-14T02:38:50.836Z,6.90
2023-05-14T02:41:19.218Z,6.40
2023-05-14T02:43:47.394Z,6.90
2023-05-14T02:46:16.143Z,7.00
2023-05-14T02:48:44.256Z,5.90
2023-05-14T02:51:12.740Z,7.70
2023-05-14T02:53:40.936Z,7.60
2023-05-14T02:56:09.201Z,6.90
2023-05-14T02:58:37.468Z,7.10
2023-05-14T03:01:05.854Z,7.90
2023-05-14T03:03:38.348Z,7.30
2023-05-14T03:06:07.537Z,6.70
2023-05-14T03:08:35.897Z,9.10
2023-05-14T03:11:04.302Z,7.50
2023-05-14T03:13:32.312Z,7.40
2023-05-14T03:16:01.353Z,7.50
2023-05-14T03:18:30.815Z,7.10
2023-05-14T03:20:58.981Z,8.30
2023-05-14T03:23:27.022Z,8.50
2023-05-14T03:25:55.158Z,7.80
2023-05-14T03:28:26.218Z,8.90
2023-05-14T03:30:54.405Z,7.40
2023-05-14T03:33:22.973Z,8.50
2023-05-14T03:35:51.855Z,7.10
2023-05-14T03:38:21.969Z,8.50
2023-05-14T03:40:50.538Z,6.80
2023-05-14T03:43:18.594Z,8.80
2023-05-14T03:45:48.337Z,7.70
2023-05-14T03:48:18.846Z,7.60
2023-05-14T03:50:47.765Z,9.10
2023-05-14T03:53:16.247Z,8.20
2023-05-14T03:55:44.150Z,7.30
2023-05-14T03:58:14.617Z,8.50
2023-05-14T04:00:43.872Z,7.70
2023-05-14T04:03:12.117Z,6.40
2023-05-14T04:05:40.222Z,7.10
2023-05-14T04:08:08.199Z,6.60
2023-05-14T04:10:36.235Z,7.40
2023-05-14T04:13:04.302Z,7.90
2023-05-14T04:15:36.167Z,8.80
2023-05-14T04:18:04.558Z,7.40
2023-05-14T04:20:32.823Z,8.50
2023-05-14T04:23:00.831Z,7.60
2023-05-14T04:25:28.926Z,6.60
2023-05-14T04:27:56.930Z,8.20
2023-05-14T04:30:24.991Z,6.30
2023-05-14T04:32:53.415Z,7.10
2023-05-14T04:35:24.727Z,5.90
2023-05-14T04:37:53.216Z,7.90
2023-05-14T04:40:22.966Z,7.10
2023-05-14T04:42:51.099Z,7.80
2023-05-14T04:45:19.619Z,9.00
2023-05-14T04:47:47.737Z,6.50
2023-05-14T04:50:16.568Z,6.10
2023-05-14T04:52:44.721Z,5.80
2023-05-14T04:55:14.975Z,6.80
2023-05-14T04:57:42.979Z,7.20
2023-05-14T05:00:12.331Z,8.20
2023-05-14T05:02:40.437Z,6.10
2023-05-14T05:05:09.917Z,7.80
2023-05-14T05:07:37.966Z,6.90
2023-05-14T05:10:07.899Z,7.80
2023-05-14T05:12:35.956Z,6.40
2023-05-14T05:15:05.173Z,6.70
2023-05-14T05:17:33.379Z,8.30
2023-05-14T05:20:01.515Z,7.90
2023-05-14T05:22:29.567Z,8.10
2023-05-14T05:24:58.972Z,6.10
2023-05-14T05:27:27.148Z,7.70
2023-05-14T05:29:55.268Z,8.90
2023-05-14T05:32:23.427Z,6.80
2023-05-14T05:34:52.185Z,7.20
2023-05-14T05:37:20.149Z,7.80
2023-05-14T05:39:48.631Z,8.50
2023-05-14T05:42:16.701Z,7.50
2023-05-14T05:44:44.615Z,7.70
2023-05-14T05:47:12.836Z,8.60
2023-05-14T05:49:40.706Z,7.50
2023-05-14T05:52:08.804Z,7.80
2023-05-14T05:54:36.793Z,7.00
2023-05-14T05:57:05.433Z,5.90
2023-05-14T05:59:33.514Z,7.30
2023-05-14T06:02:01.546Z,9.40
2023-05-14T06:04:29.906Z,7.10
2023-05-14T06:06:58.544Z,8.00
2023-05-14T06:09:26.484Z,7.70
2023-05-14T06:11:54.782Z,6.70
2023-05-14T06:14:23.392Z,7.60
2023-05-14T06:16:51.423Z,7.50
2023-05-14T06:19:19.758Z,8.90
2023-05-14T06:21:47.793Z,7.30
2023-05-14T06:24:16.654Z,7.30
2023-05-14T06:26:44.753Z,7.30
2023-05-14T06:29:13.137Z,6.50
2023-05-14T06:31:41.270Z,7.80
2023-05-14T06:34:09.384Z,7.40
2023-05-14T06:36:37.969Z,7.90
2023-05-14T06:39:06.345Z,7.20
2023-05-14T06:41:34.212Z,7.20
2023-05-14T06:44:02.592Z,7.90
2023-05-14T06:46:30.670Z,8.10
2023-05-14T06:48:59.626Z,7.10
2023-05-14T06:51:28.211Z,7.70
2023-05-14T06:53:56.417Z,6.60
2023-05-14T06:56:24.436Z,7.20
2023-05-14T06:58:52.377Z,7.70
2023-05-14T07:01:20.704Z,8.80
2023-05-14T07:03:48.714Z,7.90
2023-05-14T07:06:16.915Z,8.80
2023-05-14T07:08:48.123Z,8.40
2023-05-14T07:11:16.369Z,7.90
2023-05-14T07:13:44.844Z,9.00
2023-05-14T07:16:14.204Z,7.30
2023-05-14T07:18:44.160Z,9.10
2023-05-14T07:21:14.143Z,7.90
2023-05-14T07:23:43.439Z,10.20
2023-05-14T07:26:13.572Z,8.10
2023-05-14T07:28:43.207Z,8.40
2023-05-14T07:31:12.289Z,8.70
2023-05-14T07:33:40.928Z,9.40
2023-05-14T07:36:12.841Z,7.80
2023-05-14T07:38:41.910Z,8.20
2023-05-14T07:41:11.615Z,6.90
2023-05-14T07:43:42.243Z,9.30
2023-05-14T07:46:11.464Z,7.70
2023-05-14T07:48:40.145Z,8.70
2023-05-14T07:51:09.301Z,7.60
2023-05-14T07:53:39.466Z,8.60
2023-05-14T07:56:09.716Z,7.80
2023-05-14T07:58:39.695Z,7.00
2023-05-14T08:01:09.331Z,7.00
2023-05-14T08:03:38.052Z,9.10
2023-05-14T08:06:07.908Z,11.70
2023-05-14T08:08:37.116Z,7.00
2023-05-14T08:11:05.972Z,7.10
2023-05-14T08:13:34.686Z,8.30
2023-05-14T08:16:04.205Z,7.20
2023-05-14T08:18:32.842Z,7.20
2023-05-14T08:21:03.750Z,6.80
2023-05-14T08:23:32.494Z,6.90
2023-05-14T08:26:01.599Z,6.40
2023-05-14T08:28:29.965Z,7.80
2023-05-14T08:30:57.880Z,7.70
2023-05-14T08:33:26.266Z,8.60
2023-05-14T08:35:54.884Z,7.30
2023-05-14T08:38:23.065Z,6.10
2023-05-14T08:41:00.991Z,7.90
2023-05-14T08:43:47.676Z,6.50
2023-05-14T08:46:20.101Z,6.40
2023-05-14T08:48:58.584Z,6.70
2023-05-14T08:51:28.175Z,6.00
2023-05-14T08:53:59.411Z,5.60
2023-05-14T08:56:32.868Z,6.80
2023-05-14T08:59:01.038Z,6.10
2023-05-14T09:01:30.002Z,6.90
2023-05-14T09:04:01.657Z,7.50
2023-05-14T09:06:31.260Z,6.90
2023-05-14T09:08:59.259Z,6.70
2023-05-14T09:11:27.688Z,8.00
2023-05-14T09:13:55.676Z,7.00
2023-05-14T09:16:26.436Z,5.10
2023-05-14T09:18:55.432Z,6.30
2023-05-14T09:21:23.675Z,6.10
2023-05-14T09:23:55.739Z,5.30
2023-05-14T09:26:26.614Z,6.10
2023-05-14T09:29:05.499Z,5.60
2023-05-14T09:31:34.599Z,7.20
2023-05-14T09:34:02.457Z,6.50
2023-05-14T09:36:31.790Z,5.60
2023-05-14T09:39:00.882Z,5.40
2023-05-14T09:41:29.334Z,5.30
2023-05-14T09:43:58.025Z,5.80
2023-05-14T09:46:30.278Z,7.70
2023-05-14T09:48:58.683Z,5.00
2023-05-14T09:51:26.629Z,6.50
2023-05-14T09:53:54.605Z,5.40
2023-05-14T09:56:22.986Z,5.60
2023-05-14T09:58:51.079Z,5.30
2023-05-14T10:01:20.934Z,5.00
2023-05-14T10:03:50.888Z,4.60
2023-05-14T10:06:25.863Z,4.70
2023-05-14T10:09:00.244Z,5.00
2023-05-14T10:11:33.962Z,5.90
2023-05-14T10:14:18.749Z,6.90
2023-05-14T10:16:56.363Z,5.50
2023-05-14T10:19:26.654Z,5.80
2023-05-14T10:22:05.713Z,6.60
2023-05-14T10:24:35.062Z,4.70
2023-05-14T10:27:03.334Z,5.10
2023-05-14T10:29:37.737Z,4.90
2023-05-14T10:32:09.351Z,5.70
2023-05-14T10:34:46.293Z,5.50
2023-05-14T10:37:26.140Z,6.00
2023-05-14T10:39:56.978Z,4.00
2023-05-14T10:42:40.955Z,6.10
2023-05-14T10:45:14.896Z,4.40
2023-05-14T10:47:46.708Z,6.00
2023-05-14T10:50:16.195Z,4.40
2023-05-14T10:52:46.687Z,5.10
2023-05-14T10:55:16.877Z,5.50
2023-05-14T10:57:46.979Z,4.40
2023-05-14T11:00:16.603Z,6.00
2023-05-14T11:02:45.303Z,4.20
2023-05-14T11:05:17.725Z,5.40
2023-05-14T11:07:49.212Z,4.80
2023-05-14T11:10:22.436Z,5.00
2023-05-14T11:12:52.923Z,6.30
2023-05-14T11:15:23.726Z,4.00
2023-05-14T11:17:53.762Z,5.50
2023-05-14T11:20:22.726Z,5.60
2023-05-14T11:22:54.617Z,4.90
2023-05-14T11:25:25.768Z,4.20
2023-05-14T11:27:58.444Z,4.70
2023-05-14T11:30:26.933Z,5.60
2023-05-14T11:32:57.924Z,5.10
2023-05-14T11:35:27.746Z,5.00
2023-05-14T11:37:55.691Z,7.70
2023-05-14T11:40:23.826Z,10.10
2023-05-14T11:42:53.821Z,8.30
2023-05-14T11:45:27.275Z,7.80
2023-05-14T11:47:56.167Z,8.00
2023-05-14T11:50:24.976Z,7.90
2023-05-14T11:52:57.970Z,7.00
2023-05-14T11:55:26.185Z,5.50
2023-05-14T11:57:54.557Z,9.50
2023-05-14T12:00:24.817Z,7.20
2023-05-14T12:02:53.505Z,7.60
2023-05-14T12:05:22.162Z,10.50
2023-05-14T12:07:50.325Z,5.70
2023-05-14T12:10:18.421Z,5.90
2023-05-14T12:12:48.862Z,5.00
2023-05-14T12:15:17.611Z,5.20
2023-05-14T12:17:52.303Z,5.10
2023-05-14T12:20:20.991Z,5.00
2023-05-14T12:22:49.410Z,5.80
2023-05-14T12:25:17.959Z,5.70
2023-05-14T12:27:45.944Z,5.60
2023-05-14T12:32:46.571Z,4.50
2023-05-14T12:35:14.673Z,5.30
2023-05-14T12:37:43.389Z,4.70
2023-05-14T12:40:12.330Z,5.20
2023-05-14T12:42:40.341Z,4.90
2023-05-14T12:45:08.947Z,6.70
2023-05-14T12:47:37.517Z,4.70
2023-05-14T12:50:06.638Z,5.20
2023-05-14T12:52:39.295Z,4.30
2023-05-14T12:55:09.866Z,5.50
2023-05-14T12:57:39.682Z,7.00
2023-05-14T13:00:13.985Z,5.30
2023-05-14T13:02:43.935Z,4.70
2023-05-14T13:05:15.744Z,8.10
2023-05-14T13:07:50.043Z,4.90
2023-05-14T13:10:24.887Z,5.60
2023-05-14T13:12:57.192Z,4.70
2023-05-14T13:15:28.733Z,4.60
2023-05-14T13:17:59.872Z,4.90
2023-05-14T13:20:32.892Z,5.60
2023-05-14T13:23:04.598Z,7.60
2023-05-14T13:25:33.069Z,6.50
2023-05-14T13:28:01.444Z,6.40
2023-05-14T13:30:30.074Z,7.10
2023-05-14T13:32:59.956Z,5.80
2023-05-14T13:35:28.644Z,5.40
2023-05-14T13:37:57.111Z,5.60
2023-05-14T13:40:25.277Z,5.10
2023-05-14T13:42:53.558Z,5.80
2023-05-14T13:45:22.543Z,6.50
2023-05-14T13:47:51.623Z,4.80
2023-05-14T13:50:21.248Z,4.50
2023-05-14T13:52:49.120Z,4.90
2023-05-14T13:55:17.576Z,4.60
2023-05-14T13:57:45.879Z,6.90
2023-05-14T14:00:15.805Z,5.60
2023-05-14T14:02:43.747Z,5.70
2023-05-14T14:05:11.887Z,7.40
2023-05-14T14:07:40.835Z,8.60
2023-05-14T14:10:10.232Z,5.60
2023-05-14T14:12:38.262Z,5.40
2023-05-14T14:15:07.588Z,4.80
2023-05-14T14:17:36.918Z,6.40
2023-05-14T14:20:08.485Z,5.00
2023-05-14T14:22:37.542Z,5.80
2023-05-14T14:25:07.367Z,7.10
2023-05-14T14:27:38.645Z,7.50
2023-05-14T14:30:15.846Z,6.90
2023-05-14T14:32:49.460Z,8.30
2023-05-14T14:35:19.637Z,5.20
2023-05-14T14:37:52.342Z,6.50
2023-05-14T14:40:20.681Z,6.00
2023-05-14T14:42:48.550Z,5.50
2023-05-14T14:45:16.701Z,7.40
2023-05-14T14:47:46.772Z,4.30
2023-05-14T14:50:15.123Z,3.70
2023-05-14T14:52:46.163Z,5.00
2023-05-14T14:55:14.237Z,6.30
2023-05-14T14:57:42.402Z,6.30
2023-05-14T15:00:12.287Z,6.20
2023-05-14T15:02:43.047Z,3.90
2023-05-14T15:05:11.542Z,6.00
2023-05-14T15:07:39.513Z,6.20
2023-05-14T15:10:08.603Z,8.90
2023-05-14T15:12:36.479Z,7.40
2023-05-14T15:15:05.342Z,4.90
2023-05-14T15:17:33.359Z,5.10
2023-05-14T15:20:01.680Z,5.40
2023-05-14T15:22:30.201Z,5.30
2023-05-14T15:24:58.169Z,5.60
2023-05-14T15:27:27.388Z,5.40
2023-05-14T15:29:55.959Z,6.10
2023-05-14T15:32:26.612Z,5.60
2023-05-14T15:34:56.112Z,4.90
2023-05-14T15:37:24.979Z,6.50
2023-05-14T15:39:53.150Z,3.90
2023-05-14T15:42:21.390Z,5.40
2023-05-14T15:44:49.394Z,5.60
2023-05-14T15:47:17.473Z,3.80
2023-05-14T15:49:45.542Z,5.40
2023-05-14T15:52:14.197Z,3.70
2023-05-14T15:54:42.679Z,4.10
2023-05-14T15:57:16.333Z,4.70
2023-05-14T15:59:48.830Z,6.00
2023-05-14T16:02:19.930Z,5.10
2023-05-14T16:04:50.090Z,5.80
2023-05-14T16:07:20.159Z,3.90
2023-05-14T16:09:54.802Z,4.90
2023-05-14T16:12:26.366Z,3.50
2023-05-14T16:14:58.500Z,6.40
2023-05-14T16:17:32.450Z,4.50
2023-05-14T16:20:05.435Z,4.80
2023-05-14T16:22:37.414Z,3.90
2023-05-14T16:25:07.813Z,3.90
2023-05-14T16:27:36.556Z,4.10
2023-05-14T16:30:08.094Z,5.20
2023-05-14T16:32:55.060Z,4.60
2023-05-14T16:35:23.226Z,5.50
2023-05-14T16:37:51.313Z,5.40
2023-05-14T16:40:20.109Z,4.80
2023-05-14T16:42:49.264Z,4.40
2023-05-14T16:45:17.906Z,3.90
2023-05-14T16:47:46.067Z,4.90
2023-05-14T16:50:14.051Z,4.40
2023-05-14T16:52:41.908Z,5.00
2023-05-14T16:55:10.051Z,6.00
2023-05-14T16:57:38.049Z,4.60
2023-05-14T17:00:07.830Z,4.10
2023-05-14T17:02:36.129Z,5.00
2023-05-14T17:05:05.748Z,5.70
2023-05-14T17:07:33.750Z,4.30
2023-05-14T17:10:01.992Z,4.20
2023-05-14T17:12:30.039Z,5.00
2023-05-14T17:14:58.617Z,4.90
2023-05-14T17:17:26.584Z,5.50
2023-05-14T17:19:54.666Z,7.30
2023-05-14T17:22:22.685Z,10.50
2023-05-14T17:24:50.690Z,6.60
2023-05-14T17:27:18.561Z,6.60
2023-05-14T17:29:46.425Z,7.60
2023-05-14T17:32:14.408Z,6.60
2023-05-14T17:34:42.363Z,6.30
2023-05-14T17:37:10.644Z,7.00
2023-05-14T17:39:38.539Z,7.50
2023-05-14T17:42:08.969Z,7.00
2023-05-14T17:44:36.912Z,6.10
2023-05-14T17:47:07.264Z,6.00
2023-05-14T17:49:35.839Z,6.20
2023-05-14T17:52:04.456Z,5.90
2023-05-14T17:54:32.586Z,5.40
2023-05-14T17:57:00.868Z,7.40
2023-05-14T17:59:29.151Z,6.60
2023-05-14T18:01:57.172Z,6.50
2023-05-14T18:04:25.186Z,5.60
2023-05-14T18:06:53.470Z,6.20
2023-05-14T18:09:21.540Z,6.00
2023-05-14T18:11:49.846Z,6.10
2023-05-14T18:14:18.811Z,5.80
2023-05-14T18:16:47.179Z,6.80
2023-05-14T18:19:15.866Z,5.30
2023-05-14T18:21:46.816Z,8.10
2023-05-14T18:24:14.913Z,7.60
2023-05-14T18:26:43.096Z,5.00
2023-05-14T18:29:11.250Z,5.80
2023-05-14T18:31:39.283Z,7.30
2023-05-14T18:34:07.280Z,5.90
2023-05-14T18:36:35.797Z,5.00
2023-05-14T18:39:04.340Z,4.60
2023-05-14T18:41:52.189Z,5.50
2023-05-14T18:44:20.682Z,4.90
2023-05-14T18:46:49.739Z,4.90
2023-05-14T18:49:18.671Z,3.70
2023-05-14T18:51:47.131Z,4.30
2023-05-14T18:54:16.260Z,4.10
2023-05-14T18:56:46.816Z,4.80
2023-05-14T18:59:16.070Z,5.00
2023-05-14T19:01:44.164Z,4.80
2023-05-14T19:04:12.720Z,5.20
2023-05-14T19:06:40.804Z,5.40
2023-05-14T19:09:09.849Z,7.80
2023-05-14T19:11:38.569Z,6.60
2023-05-14T19:14:07.168Z,8.30
2023-05-14T19:16:36.067Z,6.50
2023-05-14T19:19:04.554Z,5.80
2023-05-14T19:21:32.784Z,6.40
2023-05-14T19:24:03.132Z,5.90
2023-05-14T19:26:31.719Z,5.70
2023-05-14T19:29:00.114Z,8.20
2023-05-14T19:31:28.930Z,5.60
2023-05-14T19:33:57.256Z,7.20
2023-05-14T19:36:25.527Z,7.70
2023-05-14T19:38:53.918Z,7.50
2023-05-14T19:41:23.161Z,6.00
2023-05-14T19:43:51.229Z,6.00
2023-05-14T19:46:19.385Z,7.10
2023-05-14T19:48:48.782Z,6.40
2023-05-14T19:51:17.029Z,6.80
2023-05-14T19:53:45.519Z,7.10
2023-05-14T19:56:13.487Z,6.80
2023-05-14T19:58:41.977Z,7.60
2023-05-14T20:01:10.369Z,5.50
2023-05-14T20:03:39.303Z,5.70
2023-05-14T20:06:08.124Z,6.80
2023-05-14T20:08:35.996Z,5.10
2023-05-14T20:11:04.246Z,6.00
2023-05-14T20:13:33.094Z,6.00
2023-05-14T20:16:01.474Z,6.10
2023-05-14T20:18:29.967Z,5.90
2023-05-14T20:20:59.743Z,6.90
2023-05-14T20:23:28.118Z,5.90
2023-05-14T20:25:57.626Z,6.10
2023-05-14T20:28:26.318Z,6.50
2023-05-14T20:30:55.476Z,6.50
2023-05-14T20:33:23.582Z,6.00
2023-05-14T20:35:51.897Z,6.10
2023-05-14T20:38:20.645Z,5.90
2023-05-14T20:40:49.021Z,6.20
2023-05-14T20:43:17.401Z,6.30
2023-05-14T20:45:45.781Z,5.00
2023-05-14T20:48:16.487Z,5.50
2023-05-14T20:50:44.799Z,7.10
2023-05-14T20:53:13.074Z,5.60
2023-05-14T20:55:41.660Z,6.20
2023-05-14T20:58:09.784Z,6.40
2023-05-14T21:00:37.904Z,5.80
2023-05-14T21:03:06.282Z,7.30
2023-05-14T21:05:35.137Z,5.80
2023-05-14T21:08:03.241Z,6.30
2023-05-14T21:10:31.333Z,5.20
2023-05-14T21:12:59.303Z,8.00
2023-05-14T21:15:27.710Z,5.70
2023-05-14T21:17:56.074Z,5.40
2023-05-14T21:20:24.830Z,5.50
2023-05-14T21:22:52.713Z,5.60
2023-05-14T21:25:20.978Z,5.40
2023-05-14T21:27:49.158Z,5.30
2023-05-14T21:30:17.293Z,4.90
2023-05-14T21:32:45.642Z,5.80
2023-05-14T21:35:13.983Z,5.30
2023-05-14T21:37:42.147Z,5.30
2023-05-14T21:40:12.599Z,6.00
2023-05-14T21:42:41.015Z,5.00
2023-05-14T21:45:10.270Z,5.40
2023-05-14T21:47:38.668Z,6.30
2023-05-14T21:50:08.036Z,5.30
2023-05-14T21:52:38.290Z,4.70
2023-05-14T21:55:07.262Z,5.30
2023-05-14T21:57:35.530Z,5.10
2023-05-14T22:00:07.985Z,5.10
2023-05-14T22:02:35.959Z,4.80
2023-05-14T22:05:05.326Z,5.00
2023-05-14T22:07:33.309Z,5.70
2023-05-14T22:10:01.628Z,5.70
2023-05-14T22:12:29.821Z,6.60
2023-05-14T22:14:57.682Z,5.10
2023-05-14T22:17:28.354Z,6.90
2023-05-14T22:19:57.025Z,5.90
2023-05-14T22:22:25.104Z,5.50
2023-05-14T22:24:53.615Z,5.20
2023-05-14T22:27:21.715Z,5.50
2023-05-14T22:29:49.596Z,5.80
2023-05-14T22:32:17.956Z,5.80
2023-05-14T22:34:45.931Z,6.70
2023-05-14T22:37:14.073Z,4.60
2023-05-14T22:39:43.004Z,5.50
2023-05-14T22:42:11.172Z,5.40
2023-05-14T22:44:39.199Z,5.40
2023-05-14T22:47:07.443Z,5.30
2023-05-14T22:49:35.360Z,7.10
2023-05-14T22:52:05.857Z,5.50
2023-05-14T22:54:33.894Z,7.70
2023-05-14T22:57:03.705Z,5.70
2023-05-14T22:59:31.878Z,7.10
2023-05-14T23:02:00.042Z,5.90
2023-05-14T23:04:28.542Z,6.80
2023-05-14T23:06:57.923Z,6.70
2023-05-14T23:09:26.109Z,5.50
2023-05-14T23:11:54.201Z,5.00
2023-05-14T23:14:22.764Z,5.20
2023-05-14T23:16:50.848Z,5.20
2023-05-14T23:19:19.075Z,5.40
2023-05-14T23:21:47.589Z,6.80
2023-05-14T23:24:15.799Z,5.10
2023-05-14T23:26:44.371Z,5.30
2023-05-14T23:29:12.736Z,5.10
2023-05-14T23:31:41.563Z,6.10
2023-05-14T23:34:09.788Z,5.00
2023-05-14T23:36:39.853Z,5.90
2023-05-14T23:39:07.905Z,5.70
2023-05-14T23:41:35.857Z,6.60
2023-05-14T23:44:03.952Z,5.10
2023-05-14T23:46:32.549Z,5.40
2023-05-14T23:49:01.456Z,4.90
2023-05-14T23:51:29.688Z,4.80
2023-05-14T23:53:58.741Z,5.80
2023-05-14T23:56:29.402Z,4.90
2023-05-14T23:58:57.890Z,5.80
